Englewood, Colorado
Current Conditions -  °F | °C
As of 10:53 AM on Thursday 27 Nov 2014 (Local Time) from KAPA Reporting Station
Broken Clouds Broken Clouds  
Wind Chill: 17°   Ceiling: 22000
Heat Index: 17°   Visibility: 10mi
Dew Point: -12°   Wind: 12mph
Humidity: 13%   Direction: 240°WSW
Pressure: 30.23"   Gusts: NA
Location:  39.65°N, 104.99°W
Report Text: KAPA 271753Z 24010KT 10SM FEW120 SCT150 BKN220 17/M12 A3023 RMK AO2 SLP224 T01671117 10167 20028 58005
Loading
Personal Weather Stations






























Interactive Weather Map New forecast layout! Learn more

10-Day Weather Forecast

Advertisements
Track Severe Weather on mobile